Time;durP1;ratioP1;P1;durP2;ratioP2;P2;SDS_P1;SDS_P2;PMS_P1;PMS_P2;Temp;Humidity;BMP_temperature;BMP_pressure;BME280_temperature;BME280_humidity;BME280_pressure;Samples;Min_cycle;Max_cycle;Signal;HPM_P1;HPM_P2
2022/03/06 00:01:03;;;;;;;4.13;3.35;;;;;;;16.54;40.09;102421.28;5123989;28;20364;-58
2022/03/06 00:03:29;;;;;;;4.68;3.38;;;;;;;16.54;39.96;102426.66;5123579;28;20028;-57
2022/03/06 00:05:54;;;;;;;4.75;3.33;;;;;;;16.54;40.01;102427.50;5123529;28;20114;-57
2022/03/06 00:08:20;;;;;;;4.57;3.55;;;;;;;16.53;39.97;102427.63;5123419;28;20019;-57
2022/03/06 00:10:46;;;;;;;3.75;3.28;;;;;;;16.52;40.01;102431.28;5123753;28;20030;-55
2022/03/06 00:13:13;;;;;;;5.07;3.65;;;;;;;16.50;40.07;102428.72;5122993;28;20027;-58
2022/03/06 00:15:38;;;;;;;4.60;3.58;;;;;;;16.47;40.09;102424.41;5123699;28;20027;-57
2022/03/06 00:18:04;;;;;;;4.53;3.38;;;;;;;16.48;40.06;102425.28;5105432;28;20023;-58
2022/03/06 00:20:29;;;;;;;4.25;3.40;;;;;;;16.47;40.05;102432.47;5125201;28;20185;-57
2022/03/06 00:22:55;;;;;;;3.88;3.33;;;;;;;16.46;40.25;102437.97;5127295;28;20023;-57
2022/03/06 00:25:20;;;;;;;4.07;3.55;;;;;;;16.42;40.01;102431.97;5126237;28;20038;-57
2022/03/06 00:27:45;;;;;;;3.55;2.92;;;;;;;16.44;40.09;102434.56;5127439;28;20383;-57
2022/03/06 00:30:11;;;;;;;4.15;3.10;;;;;;;16.41;40.03;102430.25;5126913;28;20030;-57
2022/03/06 00:32:36;;;;;;;5.00;4.32;;;;;;;16.39;40.22;102432.19;5127536;28;20073;-57
2022/03/06 00:35:01;;;;;;;4.05;3.20;;;;;;;16.39;40.02;102445.59;5126945;28;20051;-57
2022/03/06 00:37:27;;;;;;;4.55;3.45;;;;;;;16.37;40.10;102452.09;5127311;27;20019;-57
2022/03/06 00:39:52;;;;;;;4.88;3.50;;;;;;;16.35;40.09;102452.19;5126951;28;20030;-57
2022/03/06 00:42:18;;;;;;;4.47;3.60;;;;;;;16.34;40.23;102455.84;5127361;28;20019;-58
2022/03/06 00:44:43;;;;;;;3.42;2.92;;;;;;;16.33;40.07;102456.81;5126463;28;20023;-57
2022/03/06 00:47:08;;;;;;;5.75;3.65;;;;;;;16.31;40.06;102450.72;5127088;28;20024;-57
2022/03/06 00:49:33;;;;;;;4.53;3.53;;;;;;;16.30;40.14;102453.50;5125956;28;20496;-57
2022/03/06 00:51:59;;;;;;;3.20;2.90;;;;;;;16.26;40.15;102447.50;5127308;28;20108;-57
2022/03/06 00:54:25;;;;;;;4.10;3.20;;;;;;;16.27;40.13;102462.66;5126823;28;20019;-57
2022/03/06 00:56:50;;;;;;;3.47;3.00;;;;;;;16.27;40.12;102459.09;5127171;28;20027;-57
2022/03/06 00:59:15;;;;;;;5.32;3.78;;;;;;;16.25;39.83;102459.22;5126381;28;20030;-57
2022/03/06 01:01:41;;;;;;;3.75;2.80;;;;;;;16.20;40.16;102454.19;5126828;28;20038;-58
2022/03/06 01:04:07;;;;;;;3.40;2.83;;;;;;;16.21;40.08;102461.25;5126741;28;20073;-56
2022/03/06 01:06:32;;;;;;;4.18;3.58;;;;;;;16.19;40.10;102465.91;5126580;28;20028;-57
2022/03/06 01:08:58;;;;;;;3.85;3.33;;;;;;;16.19;40.11;102473.09;5126316;28;20084;-57
2022/03/06 01:11:23;;;;;;;4.07;3.13;;;;;;;16.19;40.08;102473.09;5114518;28;20027;-57
2022/03/06 01:13:49;;;;;;;4.00;3.45;;;;;;;16.17;40.11;102470.50;5125539;28;20028;-57
2022/03/06 01:16:14;;;;;;;3.25;2.70;;;;;;;16.17;40.13;102472.34;5109835;28;20101;-58
2022/03/06 01:18:39;;;;;;;4.45;3.38;;;;;;;16.15;40.09;102472.47;5106873;28;20385;-57
2022/03/06 01:21:05;;;;;;;3.97;3.40;;;;;;;16.14;40.13;102475.22;5126051;28;20063;-58
2022/03/06 01:23:30;;;;;;;3.47;2.92;;;;;;;16.12;40.10;102480.72;5126450;28;20031;-57
2022/03/06 01:25:55;;;;;;;4.30;3.35;;;;;;;16.07;40.01;102456.06;5126369;28;20030;-57
2022/03/06 01:28:21;;;;;;;3.63;2.97;;;;;;;16.08;40.04;102459.59;5125656;28;20047;-57
2022/03/06 01:30:46;;;;;;;4.18;2.75;;;;;;;16.06;39.98;102457.03;5125987;28;20035;-56
2022/03/06 01:33:11;;;;;;;3.65;3.00;;;;;;;16.08;40.10;102467.66;5126246;28;20664;-57
2022/03/06 01:35:36;;;;;;;3.90;2.80;;;;;;;16.07;40.06;102473.97;5125978;28;20202;-57
2022/03/06 01:38:02;;;;;;;3.88;3.10;;;;;;;16.05;40.09;102467.84;5128210;28;20030;-57
2022/03/06 01:40:27;;;;;;;3.05;2.75;;;;;;;16.04;40.17;102471.53;5130656;28;20051;-56
2022/03/06 01:42:52;;;;;;;3.28;2.88;;;;;;;16.03;39.93;102473.34;5131165;28;20019;-57
2022/03/06 01:45:20;;;;;;;3.20;2.90;;;;;;;16.03;40.00;102469.81;5130323;28;20024;-57
2022/03/06 01:47:47;;;;;;;3.17;2.50;;;;;;;16.02;40.17;102476.16;5126868;28;20091;-57
2022/03/06 01:50:21;;;;;;;3.20;2.90;;;;;;;16.00;40.08;102476.25;5125739;28;20030;-58
2022/03/06 01:52:48;;;;;;;2.97;2.70;;;;;;;15.98;39.98;102488.94;5126320;28;20016;-57
2022/03/06 01:55:15;;;;;;;2.97;2.60;;;;;;;15.97;40.10;102490.75;5126385;28;20019;-57
2022/03/06 01:57:40;;;;;;;3.30;3.00;;;;;;;15.95;39.99;102498.03;5124549;28;20600;-58
2022/03/06 02:00:09;;;;;;;3.13;2.83;;;;;;;15.95;40.05;102495.34;5123943;28;20036;-57
2022/03/06 02:02:34;;;;;;;2.95;2.65;;;;;;;15.93;40.11;102500.00;5125969;28;20053;-58
2022/03/06 02:05:02;;;;;;;3.45;3.00;;;;;;;15.93;40.03;102494.63;5125333;28;20505;-56
2022/03/06 02:07:27;;;;;;;3.63;2.80;;;;;;;15.91;40.32;102498.38;5125567;28;20031;-56
2022/03/06 02:09:53;;;;;;;3.25;2.80;;;;;;;15.89;40.21;102487.75;5124815;28;20070;-57
2022/03/06 02:12:24;;;;;;;3.28;2.97;;;;;;;15.89;40.20;102503.00;5125438;28;20027;-57
2022/03/06 02:14:56;;;;;;;3.20;2.63;;;;;;;15.88;40.16;102495.91;5124884;28;20031;-57
2022/03/06 02:17:22;;;;;;;3.17;2.67;;;;;;;15.86;40.11;102498.72;5125532;28;20141;-58
2022/03/06 02:19:51;;;;;;;3.38;2.60;;;;;;;15.85;40.09;102498.81;5124128;28;20139;-57
2022/03/06 02:22:17;;;;;;;;;;;;;;;15.81;40.25;102500.00;5125826;28;20373;-58
2022/03/06 02:24:42;;;;;;;3.35;2.58;;;;;;;15.81;40.20;102487.47;5124875;28;19914;-57
2022/03/06 02:27:07;;;;;;;2.88;2.58;;;;;;;15.80;40.24;102492.91;5125360;28;20079;-57
2022/03/06 02:29:32;;;;;;;2.80;2.20;;;;;;;15.79;40.25;102491.19;5123196;28;20023;-57
2022/03/06 02:32:00;;;;;;;3.10;2.72;;;;;;;15.74;40.25;102483.50;5125339;28;20028;-57
2022/03/06 02:34:27;;;;;;;2.75;2.30;;;;;;;15.77;40.27;102487.78;5123641;28;20019;-54
2022/03/06 02:36:52;;;;;;;4.10;2.83;;;;;;;15.76;40.19;102484.25;5124133;28;20047;-57
2022/03/06 02:39:24;;;;;;;2.63;2.28;;;;;;;15.78;40.20;102485.00;5124532;28;20497;-57
2022/03/06 02:41:49;;;;;;;3.30;2.70;;;;;;;15.75;40.13;102491.41;5124267;28;20028;-57
2022/03/06 02:44:14;;;;;;;3.47;2.80;;;;;;;15.75;40.36;102490.56;5124020;28;20096;-57
2022/03/06 02:46:39;;;;;;;3.13;2.50;;;;;;;15.70;40.25;102482.84;5124893;28;20030;-57
2022/03/06 02:49:05;;;;;;;2.70;2.50;;;;;;;15.74;40.27;102484.34;5124342;28;20063;-57
2022/03/06 02:51:30;;;;;;;3.00;2.70;;;;;;;15.73;40.17;102487.16;5124435;28;20040;-57
2022/03/06 02:53:55;;;;;;;2.72;2.47;;;;;;;15.73;40.21;102487.16;5124664;28;20035;-57
2022/03/06 02:56:20;;;;;;;3.15;2.58;;;;;;;15.70;40.25;102482.00;5124893;28;20042;-57
2022/03/06 02:58:45;;;;;;;2.72;2.47;;;;;;;15.70;40.32;102485.53;5123759;28;20027;-57
2022/03/06 03:01:11;;;;;;;2.58;2.30;;;;;;;15.66;40.24;102481.34;5124770;28;20024;-57
2022/03/06 03:03:39;;;;;;;2.83;2.35;;;;;;;15.69;40.19;102483.81;5124512;28;20051;-57
2022/03/06 03:06:07;;;;;;;3.50;2.65;;;;;;;15.70;40.27;102487.34;5122804;28;20028;-57
2022/03/06 03:08:32;;;;;;;2.72;2.40;;;;;;;15.68;40.36;102487.47;5124243;28;20027;-57
2022/03/06 03:10:57;;;;;;;3.88;2.33;;;;;;;15.68;40.33;102489.31;5124499;28;20024;-57
2022/03/06 03:13:23;;;;;;;2.97;2.63;;;;;;;15.67;40.34;102490.25;5123646;28;20027;-57
2022/03/06 03:15:49;;;;;;;2.92;2.45;;;;;;;15.66;40.04;102489.38;5124327;28;20532;-56
2022/03/06 03:18:14;;;;;;;2.67;2.40;;;;;;;15.65;40.33;102494.88;5124014;28;20086;-57
2022/03/06 03:20:39;;;;;;;2.78;2.30;;;;;;;15.64;40.26;102491.34;5123610;28;20103;-58
2022/03/06 03:23:04;;;;;;;3.65;2.35;;;;;;;15.58;40.42;102490.88;5124516;28;20231;-57
2022/03/06 03:25:30;;;;;;;3.63;2.88;;;;;;;15.61;40.28;102491.50;5124238;28;20054;-57
2022/03/06 03:27:55;;;;;;;3.03;2.72;;;;;;;15.60;40.36;102495.16;5124104;28;20642;-57
2022/03/06 03:30:20;;;;;;;3.95;2.65;;;;;;;15.55;40.40;102483.91;5123745;28;20027;-57
2022/03/06 03:32:45;;;;;;;2.78;2.58;;;;;;;15.58;40.33;102491.72;5124178;28;20028;-58
2022/03/06 03:35:11;;;;;;;2.85;2.47;;;;;;;15.53;40.34;102479.63;5123996;28;20043;-57
2022/03/06 03:37:36;;;;;;;2.42;2.22;;;;;;;15.57;40.31;102484.66;5122939;28;20023;-57
2022/03/06 03:40:03;;;;;;;2.53;2.33;;;;;;;15.57;40.33;102486.47;5123814;28;20375;-57
2022/03/06 03:42:29;;;;;;;2.60;2.40;;;;;;;15.56;40.46;102487.44;5124005;28;20047;-57
2022/03/06 03:44:54;;;;;;;3.25;2.70;;;;;;;15.55;40.25;102493.75;5123327;28;20027;-57
2022/03/06 03:47:19;;;;;;;2.58;2.38;;;;;;;15.55;40.21;102493.75;5124053;28;20095;-58
2022/03/06 03:49:44;;;;;;;2.80;2.53;;;;;;;15.53;40.35;102487.66;5122937;28;20046;-56
2022/03/06 03:52:10;;;;;;;2.30;2.10;;;;;;;15.52;40.35;102489.50;5124086;28;20118;-58
2022/03/06 03:54:35;;;;;;;2.65;2.40;;;;;;;15.52;40.28;102488.63;5128039;28;20036;-57
2022/03/06 03:57:01;;;;;;;2.70;2.47;;;;;;;15.52;40.16;102496.69;5128378;28;20036;-57
2022/03/06 03:59:26;;;;;;;2.42;2.22;;;;;;;15.52;40.32;102494.84;5126169;28;20065;-56
2022/03/06 04:01:51;;;;;;;2.33;2.13;;;;;;;15.52;40.36;102496.69;5128055;28;20066;-58
2022/03/06 04:04:17;;;;;;;2.65;2.40;;;;;;;15.49;40.39;102495.91;5128048;28;20015;-57
2022/03/06 04:06:42;;;;;;;2.70;2.50;;;;;;;15.50;40.23;102494.97;5126439;28;20495;-58
2022/03/06 04:09:07;;;;;;;3.20;2.38;;;;;;;15.47;40.34;102492.50;5127449;28;20023;-57
2022/03/06 04:11:32;;;;;;;3.03;2.80;;;;;;;15.48;40.08;102502.25;5127652;28;20020;-56
2022/03/06 04:13:58;;;;;;;2.42;2.22;;;;;;;15.48;40.21;102506.75;5108939;28;20087;-57
2022/03/06 04:16:23;;;;;;;3.20;2.20;;;;;;;15.47;40.32;102505.03;5127809;28;20057;-57
2022/03/06 04:18:48;;;;;;;2.47;2.28;;;;;;;15.48;40.25;102501.38;5127424;28;20032;-58
2022/03/06 04:21:13;;;;;;;2.92;2.50;;;;;;;15.46;40.66;102503.31;5127085;28;20073;-58
2022/03/06 04:23:39;;;;;;;2.75;2.47;;;;;;;15.49;40.16;102516.50;5127605;28;20027;-58
2022/03/06 04:26:04;;;;;;;2.80;2.40;;;;;;;15.47;40.16;102518.44;5127515;28;20019;-58
2022/03/06 04:28:30;;;;;;;2.30;2.10;;;;;;;15.47;40.23;102521.97;5126679;28;20024;-58
2022/03/06 04:30:55;;;;;;;2.67;2.28;;;;;;;15.47;40.15;102527.34;5127747;28;20024;-58
2022/03/06 04:33:21;;;;;;;2.40;2.20;;;;;;;15.46;40.39;102531.00;5127429;28;20031;-56
2022/03/06 04:35:46;;;;;;;2.50;2.30;;;;;;;15.47;40.15;102530.03;5126736;28;20053;-56
2022/03/06 04:38:11;;;;;;;2.92;2.22;;;;;;;15.47;40.13;102530.03;5127087;28;20023;-58
2022/03/06 04:40:36;;;;;;;2.70;2.33;;;;;;;15.47;40.20;102531.84;5126631;28;20150;-57
2022/03/06 04:43:02;;;;;;;2.17;1.98;;;;;;;15.45;40.19;102534.63;5126541;28;20052;-58
2022/03/06 04:45:27;;;;;;;2.50;2.08;;;;;;;15.46;40.08;102539.03;5127119;27;20051;-59
2022/03/06 04:47:53;;;;;;;2.45;2.00;;;;;;;15.45;39.95;102539.13;5127324;28;20027;-58
2022/03/06 04:50:18;;;;;;;2.40;2.20;;;;;;;15.42;40.11;102537.53;5108372;28;20488;-58
2022/03/06 04:52:43;;;;;;;2.70;2.50;;;;;;;15.45;40.28;102541.81;5127207;28;20035;-57
2022/03/06 04:55:08;;;;;;;2.83;2.38;;;;;;;15.45;40.05;102553.38;5126968;28;20028;-58
2022/03/06 04:57:34;;;;;;;2.53;2.00;;;;;;;15.45;40.03;102549.84;5127119;28;20028;-59
2022/03/06 04:59:59;;;;;;;3.88;2.22;;;;;;;15.45;39.95;102555.19;5126437;28;20042;-58
2022/03/06 05:02:24;;;;;;;2.47;2.20;;;;;;;15.42;40.27;102553.59;5127321;28;20034;-58
2022/03/06 05:04:50;;;;;;;2.38;2.17;;;;;;;15.42;40.06;102550.94;5125457;28;20023;-57
2022/03/06 05:07:16;;;;;;;2.38;2.22;;;;;;;15.43;39.91;102554.47;5127008;28;20043;-58
2022/03/06 05:09:41;;;;;;;1.98;1.88;;;;;;;15.43;40.00;102558.00;5126321;28;20030;-58
2022/03/06 05:12:08;;;;;;;2.10;1.90;;;;;;;15.42;40.00;102560.75;5126459;28;20027;-59
2022/03/06 05:14:33;;;;;;;2.40;2.20;;;;;;;15.42;40.03;102561.66;5125849;27;20091;-58
2022/03/06 05:16:58;;;;;;;2.22;2.03;;;;;;;15.42;40.18;102566.13;5126827;28;20038;-59
2022/03/06 05:19:24;;;;;;;2.40;2.20;;;;;;;15.43;40.06;102570.53;5126388;28;20048;-57
2022/03/06 05:21:49;;;;;;;2.00;1.90;;;;;;;15.43;40.02;102567.88;5126101;28;20034;-57
2022/03/06 05:24:14;;;;;;;2.28;2.08;;;;;;;15.42;40.10;102569.69;5126465;28;20032;-58
2022/03/06 05:26:39;;;;;;;2.55;2.30;;;;;;;15.38;40.27;102564.66;5125595;28;20028;-58
2022/03/06 05:29:05;;;;;;;3.13;2.47;;;;;;;15.40;40.00;102571.59;5123797;28;20028;-58
2022/03/06 05:31:30;;;;;;;2.22;2.03;;;;;;;15.38;39.92;102568.19;5125658;28;20035;-56
2022/03/06 05:33:55;;;;;;;2.08;1.88;;;;;;;15.41;39.92;102578.66;5125865;28;20058;-58
2022/03/06 05:36:22;;;;;;;2.28;2.08;;;;;;;15.38;40.08;102575.38;5125051;28;20034;-57
2022/03/06 05:38:48;;;;;;;2.45;2.10;;;;;;;15.41;39.85;102585.84;5125520;28;20647;-57
2022/03/06 05:41:13;;;;;;;2.35;2.15;;;;;;;15.41;40.13;102594.75;5124082;28;20042;-58
2022/03/06 05:43:38;;;;;;;2.25;2.05;;;;;;;15.41;40.13;102584.03;5125124;28;20111;-57
2022/03/06 05:46:03;;;;;;;2.38;2.17;;;;;;;15.41;40.03;102589.38;5125807;28;20228;-58
2022/03/06 05:48:29;;;;;;;2.70;2.50;;;;;;;15.41;40.14;102591.22;5124014;28;20415;-57
2022/03/06 05:50:54;;;;;;;2.30;2.10;;;;;;;15.40;40.20;102595.72;5125173;28;20034;-57
2022/03/06 05:53:20;;;;;;;2.38;2.17;;;;;;;15.41;40.21;102601.94;5125525;28;20028;-57
2022/03/06 05:55:46;;;;;;;2.38;2.10;;;;;;;15.37;40.14;102600.44;5125533;28;20440;-58
2022/03/06 05:58:11;;;;;;;2.47;2.08;;;;;;;15.41;40.08;102602.78;5123323;28;20016;-56
2022/03/06 06:00:36;;;;;;;2.72;2.33;;;;;;;15.41;40.24;102612.66;5125439;28;20024;-58
2022/03/06 06:03:02;;;;;;;3.08;2.30;;;;;;;15.42;40.48;102612.56;5125442;28;20026;-59
2022/03/06 06:05:28;;;;;;;3.40;2.47;;;;;;;15.48;40.69;102613.97;5123994;28;20546;-58
2022/03/06 06:07:53;;;;;;;3.80;2.85;;;;;;;15.54;40.66;102610.00;5143020;27;20023;-59
2022/03/06 06:10:18;;;;;;;2.80;2.60;;;;;;;15.60;40.57;102617.66;5142361;27;20023;-58
2022/03/06 06:12:44;;;;;;;5.28;3.25;;;;;;;15.65;40.49;102605.66;5128676;28;20019;-57
2022/03/06 06:15:10;;;;;;;4.32;2.70;;;;;;;15.68;40.44;102612.66;5128503;28;20023;-59
2022/03/06 06:17:36;;;;;;;3.15;2.85;;;;;;;15.70;40.32;102614.25;5127113;28;20028;-58
2022/03/06 06:20:04;;;;;;;4.55;2.88;;;;;;;15.74;40.35;102618.44;5123532;28;20700;-58
2022/03/06 06:22:30;;;;;;;4.03;3.10;;;;;;;15.74;40.36;102612.22;5124332;28;20011;-57
2022/03/06 06:24:55;;;;;;;3.20;2.65;;;;;;;15.80;40.41;102629.69;5124522;28;20404;-58
2022/03/06 06:27:21;;;;;;;3.83;2.95;;;;;;;15.81;40.53;102634.13;5124475;28;20031;-57
2022/03/06 06:29:46;;;;;;;3.60;2.63;;;;;;;15.84;40.41;102633.88;5123538;28;20042;-57
2022/03/06 06:32:11;;;;;;;3.10;2.80;;;;;;;15.86;40.38;102632.81;5124531;28;20026;-58
2022/03/06 06:34:36;;;;;;;3.47;2.85;;;;;;;15.87;40.49;102628.31;5124011;28;20073;-58
2022/03/06 06:37:02;;;;;;;4.72;2.92;;;;;;;15.90;40.36;102636.16;5123758;28;20026;-58
2022/03/06 06:39:27;;;;;;;2.80;2.42;;;;;;;15.92;40.41;102624.31;5123154;28;20029;-58
2022/03/06 06:41:53;;;;;;;3.33;2.70;;;;;;;15.90;40.36;102623.59;5123933;28;20035;-58
2022/03/06 06:44:19;;;;;;;3.80;2.70;;;;;;;15.94;40.42;102635.81;5123285;28;20027;-58
2022/03/06 06:46:44;;;;;;;3.08;2.65;;;;;;;15.95;40.36;102645.59;5123794;28;20024;-58
2022/03/06 06:49:10;;;;;;;4.38;2.92;;;;;;;15.97;40.31;102646.34;5123637;28;20020;-58
2022/03/06 06:51:36;;;;;;;3.70;2.90;;;;;;;15.99;40.11;102660.50;5123263;28;20046;-58
2022/03/06 06:54:01;;;;;;;3.17;2.70;;;;;;;16.02;40.32;102662.13;5123631;28;20100;-58
2022/03/06 06:56:27;;;;;;;3.22;2.92;;;;;;;16.04;40.20;102667.38;5123647;28;20030;-57
2022/03/06 06:58:52;;;;;;;4.65;3.03;;;;;;;16.04;40.14;102668.22;5122869;28;20035;-57
2022/03/06 07:01:17;;;;;;;2.97;2.65;;;;;;;16.08;40.14;102666.19;5123866;28;20038;-57
2022/03/06 07:03:42;;;;;;;2.80;2.50;;;;;;;16.12;40.03;102686.47;5123812;28;20015;-57
2022/03/06 07:06:08;;;;;;;3.83;2.60;;;;;;;16.13;40.18;102678.31;5123603;28;20591;-56
2022/03/06 07:08:33;;;;;;;3.17;2.88;;;;;;;16.16;40.08;102682.63;5123132;28;20024;-58
2022/03/06 07:10:58;;;;;;;2.88;2.55;;;;;;;16.19;40.08;102687.78;5123246;28;20027;-58
2022/03/06 07:13:23;;;;;;;2.78;2.33;;;;;;;16.21;39.98;102692.06;5122688;28;20031;-57
2022/03/06 07:15:48;;;;;;;3.00;2.70;;;;;;;16.24;39.94;102691.00;5123293;28;20103;-58
2022/03/06 07:18:14;;;;;;;2.75;2.40;;;;;;;16.27;39.95;102695.28;5123363;28;20058;-58
2022/03/06 07:20:39;;;;;;;2.53;2.30;;;;;;;16.28;40.08;102700.56;5122565;28;20049;-58
2022/03/06 07:23:05;;;;;;;3.20;2.63;;;;;;;16.31;39.83;102703.03;5123380;28;20035;-58
2022/03/06 07:25:31;;;;;;;3.75;2.88;;;;;;;16.37;39.83;102715.16;5123347;28;20030;-58
2022/03/06 07:27:56;;;;;;;3.50;2.58;;;;;;;16.40;39.88;102707.75;5122912;28;20083;-58
2022/03/06 07:30:22;;;;;;;2.45;2.20;;;;;;;16.44;39.60;102706.56;5122752;28;20008;-57
2022/03/06 07:32:49;;;;;;;3.22;2.22;;;;;;;16.49;39.62;102711.59;5123089;28;20026;-57
2022/03/06 07:35:16;;;;;;;2.85;2.55;;;;;;;16.55;39.49;102715.66;5123282;28;20063;-57
2022/03/06 07:37:41;;;;;;;3.40;2.20;;;;;;;16.65;39.38;102714.91;5123680;28;20019;-57
2022/03/06 07:40:08;;;;;;;5.05;2.60;;;;;;;16.70;39.24;102710.06;5122667;28;20499;-56
2022/03/06 07:42:34;;;;;;;3.17;2.50;;;;;;;16.76;39.05;102708.78;5123476;28;20028;-57
2022/03/06 07:44:59;;;;;;;3.08;2.67;;;;;;;16.81;38.91;102713.81;5122891;28;20038;-57
2022/03/06 07:47:25;;;;;;;2.95;2.53;;;;;;;16.84;38.92;102719.00;5123662;28;20023;-58
2022/03/06 07:49:50;;;;;;;3.45;2.28;;;;;;;16.87;38.74;102714.25;5123080;28;20024;-56
2022/03/06 07:52:15;;;;;;;2.72;2.20;;;;;;;16.96;38.68;102720.78;5123241;28;20080;-58
2022/03/06 07:54:41;;;;;;;2.13;1.92;;;;;;;17.07;38.46;102715.47;5123470;28;20028;-57
2022/03/06 07:57:06;;;;;;;2.42;1.90;;;;;;;17.19;38.21;102725.31;5123509;28;20061;-56
2022/03/06 07:59:31;;;;;;;2.80;2.38;;;;;;;17.31;38.07;102725.41;5122325;28;20110;-57
2022/03/06 08:01:56;;;;;;;2.40;1.92;;;;;;;17.47;37.73;102725.97;5123263;28;20539;-58
2022/03/06 08:04:22;;;;;;;2.85;2.30;;;;;;;17.64;37.36;102728.25;5123195;28;20078;-57
2022/03/06 08:06:48;;;;;;;2.65;2.00;;;;;;;17.83;37.02;102719.66;5123010;28;20028;-57
2022/03/06 08:09:13;;;;;;;2.90;2.08;;;;;;;18.08;36.54;102726.69;5122436;28;20046;-57
2022/03/06 08:11:38;;;;;;;2.47;2.22;;;;;;;18.27;36.32;102727.97;5108964;28;20016;-56
2022/03/06 08:14:04;;;;;;;1.95;1.70;;;;;;;18.43;36.04;102721.22;5106949;28;20027;-57
2022/03/06 08:16:29;;;;;;;2.65;2.00;;;;;;;18.62;36.02;102731.41;5113170;28;20049;-58
2022/03/06 08:18:54;;;;;;;3.42;1.95;;;;;;;18.84;35.65;102730.56;5118327;28;20265;-56
2022/03/06 08:21:19;;;;;;;2.85;2.10;;;;;;;19.14;35.42;102737.16;5118771;28;20391;-58
2022/03/06 08:23:45;;;;;;;2.50;1.70;;;;;;;19.48;34.86;102730.69;5116098;28;20055;-56
2022/03/06 08:26:10;;;;;;;2.63;1.77;;;;;;;19.85;34.20;102732.16;5114870;28;20042;-57
2022/03/06 08:28:35;;;;;;;2.15;1.67;;;;;;;20.22;33.47;102730.72;5117030;28;20028;-58
2022/03/06 08:31:00;;;;;;;2.40;1.67;;;;;;;20.64;33.01;102737.91;5110438;28;20113;-58
2022/03/06 08:33:26;;;;;;;2.30;1.30;;;;;;;21.12;32.37;102738.06;5123031;28;20063;-57
2022/03/06 08:35:52;;;;;;;1.63;1.40;;;;;;;21.53;31.75;102741.56;5122696;28;20024;-58
2022/03/06 08:38:18;;;;;;;1.95;1.60;;;;;;;21.93;30.89;102736.00;5122553;28;20028;-59
2022/03/06 08:40:43;;;;;;;2.17;1.30;;;;;;;22.23;30.33;102744.97;5125233;28;20087;-58
2022/03/06 08:43:08;;;;;;;2.42;1.80;;;;;;;22.31;29.94;102736.97;5126000;28;20468;-58
2022/03/06 08:45:33;;;;;;;2.15;1.35;;;;;;;22.30;29.98;102732.56;5126628;28;20035;-58
2022/03/06 08:47:59;;;;;;;1.40;1.30;;;;;;;22.32;29.99;102733.25;5126827;28;20391;-58
2022/03/06 08:50:24;;;;;;;4.05;1.65;;;;;;;22.35;29.83;102740.25;5126076;28;20059;-58
2022/03/06 08:52:49;;;;;;;1.83;1.25;;;;;;;22.44;29.83;102742.91;5108233;28;20028;-58
2022/03/06 08:55:14;;;;;;;1.58;1.20;;;;;;;22.60;29.49;102742.28;5126394;28;20284;-58
2022/03/06 08:57:40;;;;;;;1.92;1.17;;;;;;;22.79;29.78;102751.34;5126281;28;20023;-58
2022/03/06 09:00:06;;;;;;;2.28;1.20;;;;;;;22.98;29.11;102751.28;5125805;28;20032;-58
2022/03/06 09:02:31;;;;;;;1.45;1.00;;;;;;;23.23;28.61;102741.53;5126065;28;20035;-58
2022/03/06 09:04:56;;;;;;;2.42;1.15;;;;;;;23.54;28.00;102728.47;5125648;28;20030;-58
2022/03/06 09:07:22;;;;;;;1.25;0.80;;;;;;;23.89;27.35;102752.06;5125981;28;20548;-58
2022/03/06 09:09:49;;;;;;;1.50;1.00;;;;;;;24.22;27.18;102744.16;5123889;28;20126;-58
2022/03/06 09:12:14;;;;;;;1.38;0.90;;;;;;;24.57;26.35;102745.06;5121603;28;20056;-58
2022/03/06 09:14:39;;;;;;;2.40;0.88;;;;;;;24.85;26.19;102746.56;5104663;28;20058;-57
2022/03/06 09:17:05;;;;;;;1.42;1.13;;;;;;;25.10;25.81;102743.94;5105860;28;20491;-58
2022/03/06 09:19:30;;;;;;;1.90;1.10;;;;;;;25.23;25.41;102732.56;5105171;28;20506;-57
2022/03/06 09:21:55;;;;;;;1.40;1.00;;;;;;;25.52;25.17;102743.84;5103994;28;20070;-58
2022/03/06 09:24:21;;;;;;;1.10;0.75;;;;;;;25.70;24.99;102741.00;5105444;28;20030;-58
2022/03/06 09:26:47;;;;;;;1.88;0.80;;;;;;;25.90;24.58;102733.34;5118255;28;20042;-57
2022/03/06 09:29:12;;;;;;;1.48;0.90;;;;;;;26.08;24.34;102744.94;5125058;28;20055;-58
2022/03/06 09:31:39;;;;;;;1.25;0.85;;;;;;;26.24;24.08;102741.31;5125832;28;20488;-58
2022/03/06 09:34:05;;;;;;;1.73;0.80;;;;;;;26.38;23.69;102745.22;5125807;28;20127;-58
2022/03/06 09:36:31;;;;;;;0.82;0.68;;;;;;;26.49;23.62;102733.94;5125239;28;20027;-58
2022/03/06 09:38:56;;;;;;;1.05;0.60;;;;;;;26.58;23.75;102749.25;5123229;28;20047;-58
2022/03/06 09:41:25;;;;;;;2.17;0.85;;;;;;;26.70;23.16;102743.44;5125810;28;20040;-59
2022/03/06 09:43:54;;;;;;;2.17;0.95;;;;;;;26.82;23.04;102744.75;5124653;28;20105;-58
2022/03/06 09:46:19;;;;;;;1.35;0.80;;;;;;;26.89;23.03;102749.31;5125610;28;20020;-58
2022/03/06 09:48:45;;;;;;;1.05;0.70;;;;;;;26.98;22.88;102744.69;5125176;28;20407;-58
2022/03/06 09:51:10;;;;;;;1.38;0.60;;;;;;;27.09;22.51;102743.41;5123412;28;20041;-58
2022/03/06 09:53:35;;;;;;;2.47;0.75;;;;;;;27.23;22.65;102739.09;5107981;28;20488;-57
2022/03/06 09:56:00;;;;;;;1.13;0.85;;;;;;;27.36;22.45;102733.91;5109435;28;20496;-58
2022/03/06 09:58:26;;;;;;;1.38;0.70;;;;;;;27.40;22.04;102733.34;5114567;28;20133;-58
2022/03/06 10:00:52;;;;;;;1.20;0.75;;;;;;;27.22;22.41;102735.50;5108314;28;20036;-58
2022/03/06 10:03:21;;;;;;;0.93;0.70;;;;;;;26.61;23.04;102735.28;5110997;28;20087;-58
2022/03/06 10:05:47;;;;;;;0.98;0.68;;;;;;;25.88;23.67;102735.41;5113730;28;20024;-58
2022/03/06 10:08:26;;;;;;;1.45;0.85;;;;;;;25.02;24.78;102727.56;5107088;28;20031;-57
2022/03/06 10:10:56;;;;;;;0.95;0.70;;;;;;;24.31;25.64;102740.47;5106804;28;20016;-57
2022/03/06 10:13:29;;;;;;;0.98;0.80;;;;;;;23.69;26.57;102739.66;5109415;28;20020;-57
2022/03/06 10:16:11;;;;;;;1.60;1.00;;;;;;;23.11;27.34;102745.50;5107637;28;20031;-56
2022/03/06 10:18:39;;;;;;;1.58;0.80;;;;;;;22.67;27.84;102743.38;5108084;28;20031;-57
2022/03/06 10:21:15;;;;;;;1.40;0.85;;;;;;;22.29;28.21;102744.38;5109804;28;20047;-58
2022/03/06 10:23:41;;;;;;;1.48;0.95;;;;;;;22.00;28.78;102746.25;5106825;28;20028;-58
2022/03/06 10:26:12;;;;;;;1.17;0.80;;;;;;;21.68;29.55;102734.75;5102731;28;20098;-58
2022/03/06 10:28:48;;;;;;;1.40;1.00;;;;;;;21.47;29.77;102750.25;5108903;28;20024;-58
2022/03/06 10:31:14;;;;;;;2.20;0.90;;;;;;;21.26;30.25;102744.06;5107339;28;20023;-58
2022/03/06 10:33:40;;;;;;;2.35;1.20;;;;;;;21.08;30.68;102744.75;5109678;28;20023;-56
2022/03/06 10:36:09;;;;;;;1.77;1.10;;;;;;;20.92;31.35;102744.41;5102130;28;20251;-56
2022/03/06 10:38:35;;;;;;;1.20;0.82;;;;;;;20.77;31.62;102760.13;5113935;28;20505;-58
2022/03/06 10:41:09;;;;;;;1.45;0.98;;;;;;;20.64;31.77;102764.91;5104643;28;20083;-58
2022/03/06 10:43:35;;;;;;;1.65;1.10;;;;;;;20.51;31.95;102765.16;5109285;28;20028;-59
2022/03/06 10:46:09;;;;;;;1.33;1.05;;;;;;;20.42;32.36;102758.66;5113774;28;20020;-59
2022/03/06 10:48:35;;;;;;;1.38;1.10;;;;;;;20.32;32.43;102751.50;5119250;28;20039;-59
2022/03/06 10:51:08;;;;;;;2.40;1.10;;;;;;;20.23;32.42;102759.41;5103230;28;20020;-58
2022/03/06 10:53:34;;;;;;;1.10;0.82;;;;;;;20.17;32.75;102761.78;5103838;28;20020;-59
2022/03/06 10:56:10;;;;;;;1.42;1.17;;;;;;;20.09;32.68;102759.75;5103812;28;20358;-58
2022/03/06 10:58:38;;;;;;;1.50;1.05;;;;;;;20.02;33.01;102758.56;5113295;28;20047;-58
2022/03/06 11:01:03;;;;;;;1.67;1.25;;;;;;;19.94;32.86;102759.22;5123868;28;20027;-59
2022/03/06 11:03:31;;;;;;;1.17;1.02;;;;;;;19.89;33.16;102761.47;5122485;28;20023;-58
2022/03/06 11:05:56;;;;;;;1.20;1.10;;;;;;;19.85;33.33;102762.69;5123412;28;20593;-58
2022/03/06 11:08:24;;;;;;;1.20;1.10;;;;;;;19.78;33.24;102761.50;5122261;28;20460;-59
2022/03/06 11:10:49;;;;;;;1.77;1.40;;;;;;;19.76;33.52;102776.97;5112717;28;20012;-58
2022/03/06 11:13:15;;;;;;;2.30;1.42;;;;;;;19.74;33.47;102770.84;5120027;28;20024;-58
2022/03/06 11:15:41;;;;;;;1.88;1.50;;;;;;;19.71;33.85;102771.97;5123280;28;20023;-59
2022/03/06 11:18:07;;;;;;;1.63;1.50;;;;;;;19.67;33.80;102767.81;5122982;28;20035;-58